Time;durP1;ratioP1;P1;durP2;ratioP2;P2;SDS_P1;SDS_P2;PMS_P1;PMS_P2;Temp;Humidity;BMP_temperature;BMP_pressure;BME280_temperature;BME280_humidity;BME280_pressure;Samples;Min_cycle;Max_cycle;Signal;HPM_P1;HPM_P2
2022/08/01 00:00:54;;;;;;;0.50;0.50;;;22.50;61.60;;;22.96;46.23;94908.94;5074865;28;20223;-78
2022/08/01 00:03:21;;;;;;;0.40;0.40;;;22.50;61.50;;;22.93;46.23;94910.31;5090268;28;20598;-78
2022/08/01 00:05:48;;;;;;;0.40;0.40;;;22.50;61.60;;;22.92;46.34;94903.34;5089035;28;20229;-77
2022/08/01 00:08:15;;;;;;;0.30;0.30;;;22.50;61.50;;;22.93;46.26;94906.84;5064780;28;20205;-77
2022/08/01 00:10:42;;;;;;;0.40;0.40;;;22.50;61.50;;;22.93;46.48;94902.28;5059118;28;20213;-78
2022/08/01 00:13:09;;;;;;;0.40;0.40;;;22.50;61.60;;;22.93;46.41;94898.81;5084698;28;20218;-78
2022/08/01 00:15:37;;;;;;;0.35;0.35;;;22.50;61.60;;;22.93;46.36;94899.59;5085328;28;20706;-78
2022/08/01 00:18:04;;;;;;;0.38;0.38;;;22.50;61.80;;;22.92;46.67;94895.31;5054596;28;20197;-77
2022/08/01 00:20:31;;;;;;;0.50;0.50;;;22.50;61.70;;;22.92;46.63;94891.84;5073052;28;20272;-78
2022/08/01 00:22:58;;;;;;;0.50;0.50;;;22.50;61.70;;;22.92;46.07;94899.88;5069568;28;20208;-77
2022/08/01 00:25:25;;;;;;;0.30;0.30;;;22.50;61.60;;;22.92;46.52;94897.19;5061945;28;20208;-78
2022/08/01 00:28:01;;;;;;;0.30;0.30;;;22.50;61.80;;;22.93;46.23;94896.13;5053353;28;20215;-77
2022/08/01 00:30:30;;;;;;;0.40;0.40;;;22.50;61.70;;;22.93;46.27;94896.94;5068328;28;20225;-77
2022/08/01 00:32:58;;;;;;;0.35;0.35;;;22.50;61.70;;;22.88;46.58;94886.25;5067850;28;20217;-77
2022/08/01 00:35:25;;;;;;;0.40;0.40;;;22.50;61.70;;;22.95;46.49;94899.31;5068955;28;21510;-77
2022/08/01 00:37:52;;;;;;;0.55;0.55;;;22.50;61.70;;;22.95;46.23;94884.09;5053553;28;20210;-78
2022/08/01 00:40:20;;;;;;;0.47;0.47;;;22.50;61.80;;;22.95;46.32;94880.59;5069788;28;20210;-78
2022/08/01 00:42:47;;;;;;;0.30;0.30;;;22.50;61.70;;;22.96;46.45;94875.00;5086428;28;20213;-78
2022/08/01 00:45:15;;;;;;;0.40;0.40;;;22.50;61.70;;;22.95;46.34;94876.06;5070470;28;20193;-78
2022/08/01 00:47:42;;;;;;;0.30;0.30;;;22.50;61.70;;;22.94;46.72;94871.78;5071040;28;20190;-78
2022/08/01 00:50:10;;;;;;;0.40;0.40;;;22.50;61.90;;;22.95;46.69;94877.94;5073283;28;20215;-78
2022/08/01 00:52:40;;;;;;;0.40;0.40;;;22.50;61.80;;;22.92;46.60;94879.28;5075977;28;20224;-79
2022/08/01 00:55:09;;;;;;;0.40;0.40;;;22.50;62.00;;;22.90;46.58;94867.25;5077103;28;20221;-78
2022/08/01 00:57:41;;;;;;;0.40;0.40;;;22.50;61.80;;;22.89;46.25;94871.81;5078978;28;20213;-77
2022/08/01 01:00:29;;;;;;;0.40;0.40;;;22.50;61.80;;;22.88;46.25;94864.84;5095799;28;20199;-78
2022/08/01 01:03:01;;;;;;;0.40;0.40;;;22.50;61.90;;;22.88;46.47;94872.09;5078097;28;20213;-78
2022/08/01 01:05:28;;;;;;;0.40;0.40;;;22.50;61.80;;;22.86;46.52;94873.16;5095172;28;20199;-78
2022/08/01 01:08:11;;;;;;;0.40;0.40;;;22.50;61.90;;;22.85;46.84;94865.38;5075335;28;20761;-78
2022/08/01 01:11:00;;;;;;;0.40;0.40;;;22.50;61.90;;;22.78;46.52;94854.19;5092984;28;20232;-78
2022/08/01 01:13:50;;;;;;;0.40;0.40;;;22.40;61.80;;;22.80;46.50;94860.88;5077355;28;20217;-78
2022/08/01 01:16:21;;;;;;;0.40;0.40;;;22.40;61.90;;;22.80;46.67;94862.72;5059163;28;20224;-77
2022/08/01 01:18:55;;;;;;;0.30;0.30;;;22.40;61.90;;;22.80;46.94;94868.88;5091330;28;20210;-78
2022/08/01 01:21:40;;;;;;;0.40;0.40;;;22.40;62.10;;;22.78;46.63;94860.31;5078045;28;20217;-78
2022/08/01 01:24:40;;;;;;;0.40;0.40;;;22.40;61.90;;;22.77;46.67;94856.03;5073946;28;20609;-76
2022/08/01 01:27:16;;;;;;;0.35;0.35;;;22.40;61.80;;;22.74;47.02;94850.44;5074246;28;20222;-77
2022/08/01 01:29:50;;;;;;;0.40;0.40;;;22.40;62.00;;;22.77;46.78;94856.03;5075681;28;20648;-78
2022/08/01 01:32:41;;;;;;;0.35;0.35;;;22.40;61.90;;;22.78;46.73;94870.22;5093429;28;20229;-77
2022/08/01 01:35:17;;;;;;;0.40;0.40;;;22.40;61.80;;;22.79;46.71;94861.09;5094351;28;20236;-77
2022/08/01 01:37:47;;;;;;;0.50;0.50;;;22.40;62.00;;;22.81;46.55;94859.78;5094272;28;20205;-78
2022/08/01 01:40:16;;;;;;;0.40;0.40;;;22.40;61.90;;;22.83;46.82;94862.19;5059424;28;20207;-77
2022/08/01 01:42:44;;;;;;;0.40;0.40;;;22.50;62.00;;;22.82;46.80;94853.34;5041068;28;20210;-77
2022/08/01 01:45:11;;;;;;;0.40;0.40;;;22.50;62.10;;;22.84;46.63;94855.78;5057631;28;20627;-77
2022/08/01 01:47:39;;;;;;;0.40;0.40;;;22.50;62.10;;;22.84;47.00;94861.91;5062304;28;20223;-78
2022/08/01 01:50:10;;;;;;;0.30;0.30;;;22.50;62.00;;;22.82;46.67;94853.34;5084122;28;20216;-78
2022/08/01 01:52:39;;;;;;;0.40;0.40;;;22.50;62.10;;;22.82;47.29;94858.69;5093440;28;20224;-78
2022/08/01 01:55:11;;;;;;;0.40;0.40;;;22.50;62.10;;;22.84;46.82;94855.78;5076855;28;20203;-78
2022/08/01 01:57:41;;;;;;;0.30;0.30;;;22.50;62.10;;;22.84;47.29;94858.44;5093223;28;20569;-78
2022/08/01 02:00:13;;;;;;;0.40;0.40;;;22.50;62.40;;;22.83;47.21;94846.94;5074877;28;20282;-77
2022/08/01 02:02:42;;;;;;;0.40;0.40;;;22.50;62.40;;;22.83;47.40;94852.28;5076396;28;20281;-77
2022/08/01 02:05:11;;;;;;;0.40;0.40;;;22.50;62.20;;;22.84;47.17;94850.44;5060881;28;20210;-77
2022/08/01 02:07:39;;;;;;;0.40;0.40;;;22.50;62.30;;;22.82;47.39;94845.31;5073188;28;20229;-78
2022/08/01 02:10:08;;;;;;;0.40;0.40;;;22.50;62.20;;;22.83;47.58;94841.59;5069934;28;20212;-77
2022/08/01 02:12:39;;;;;;;0.40;0.40;;;22.50;62.30;;;22.81;47.13;94842.94;5093771;28;20213;-78
2022/08/01 02:15:09;;;;;;;0.40;0.40;;;22.50;62.40;;;22.77;47.34;94836.53;5076555;28;20205;-78
2022/08/01 02:17:44;;;;;;;0.50;0.50;;;22.50;62.10;;;22.77;47.24;94837.31;5077040;28;20266;-78
2022/08/01 02:20:12;;;;;;;0.40;0.40;;;22.50;62.30;;;22.73;47.29;94846.16;5063403;28;20204;-78
2022/08/01 02:22:53;;;;;;;0.30;0.30;;;22.40;62.30;;;22.69;47.33;94841.34;5041483;28;20223;-78
2022/08/01 02:25:46;;;;;;;0.50;0.50;;;22.40;62.20;;;22.61;47.71;94839.22;5073307;28;20187;-78
2022/08/01 02:28:49;;;;;;;0.40;0.40;;;22.40;62.20;;;22.59;47.15;94833.34;5071676;28;20194;-78
2022/08/01 02:31:21;;;;;;;0.60;0.60;;;22.40;62.30;;;22.57;47.36;94843.53;5064611;28;20258;-79
2022/08/01 02:33:59;;;;;;;0.40;0.40;;;22.30;62.60;;;22.53;47.47;94837.91;5077982;28;20212;-78
2022/08/01 02:36:28;;;;;;;0.40;0.40;;;22.30;62.40;;;22.53;47.25;94839.75;5076676;28;20216;-78
2022/08/01 02:39:06;;;;;;;0.40;0.40;;;22.20;62.20;;;22.51;47.47;94834.69;5064338;28;20630;-78
2022/08/01 02:41:42;;;;;;;0.40;0.40;;;22.20;62.40;;;22.54;47.57;94839.53;5057175;28;20224;-77
2022/08/01 02:44:24;;;;;;;0.40;0.40;;;22.20;62.40;;;22.54;47.41;94836.84;5089392;28;20224;-76
2022/08/01 02:47:01;;;;;;;0.50;0.50;;;22.20;62.50;;;22.53;47.40;94837.91;5056789;28;20268;-78
2022/08/01 02:49:37;;;;;;;0.40;0.40;;;22.20;62.40;;;22.50;47.85;94835.75;5040488;28;20707;-78
2022/08/01 02:52:09;;;;;;;0.40;0.40;;;22.20;62.40;;;22.49;47.19;94828.81;5056688;28;20315;-77
2022/08/01 02:54:38;;;;;;;0.30;0.30;;;22.20;62.50;;;22.49;47.84;94826.13;5075721;28;20219;-78
2022/08/01 02:57:08;;;;;;;0.45;0.45;;;22.20;62.60;;;22.47;47.64;94816.78;5090607;28;20688;-78
2022/08/01 02:59:42;;;;;;;0.40;0.40;;;22.20;62.60;;;22.47;47.73;94830.97;5072677;28;20198;-78
2022/08/01 03:02:13;;;;;;;0.40;0.40;;;22.20;63.00;;;22.43;48.00;94829.88;5086303;28;20254;-76
2022/08/01 03:04:42;;;;;;;0.40;0.40;;;22.10;63.20;;;22.38;48.17;94830.69;5083419;28;20186;-77
2022/08/01 03:07:11;;;;;;;0.30;0.30;;;22.10;63.00;;;22.34;47.74;94824.25;5082765;28;20225;-78
2022/08/01 03:09:45;;;;;;;0.40;0.40;;;22.10;63.10;;;22.30;47.79;94827.72;5083082;28;20224;-78
2022/08/01 03:12:20;;;;;;;0.45;0.45;;;22.00;63.00;;;22.25;48.13;94825.06;5072557;28;20222;-78
2022/08/01 03:14:49;;;;;;;0.40;0.40;;;22.00;63.00;;;22.25;47.99;94820.50;5065872;28;20625;-77
2022/08/01 03:17:21;;;;;;;0.40;0.40;;;22.00;63.00;;;22.24;48.19;94816.25;5065350;28;20238;-79
2022/08/01 03:19:49;;;;;;;0.40;0.40;;;21.90;63.30;;;22.25;47.99;94819.72;5073285;28;20224;-78
2022/08/01 03:22:18;;;;;;;0.32;0.32;;;21.90;63.10;;;22.22;48.18;94818.38;5091132;28;20315;-78
2022/08/01 03:24:49;;;;;;;0.40;0.40;;;21.90;63.10;;;22.25;48.47;94825.84;5067387;28;20559;-77
2022/08/01 03:27:22;;;;;;;0.43;0.43;;;21.90;63.20;;;22.25;47.99;94820.50;5089220;28;20297;-77
2022/08/01 03:29:52;;;;;;;0.50;0.50;;;21.90;63.10;;;22.26;48.22;94821.31;5057105;28;20227;-77
2022/08/01 03:32:21;;;;;;;0.40;0.40;;;21.90;63.10;;;22.26;48.42;94824.00;5081537;28;20239;-78
2022/08/01 03:34:49;;;;;;;0.40;0.40;;;21.90;63.10;;;22.27;48.80;94822.94;5071827;28;20204;-78
2022/08/01 03:37:27;;;;;;;0.40;0.40;;;21.90;63.10;;;22.27;48.03;94820.25;5073387;28;20213;-78
2022/08/01 03:40:37;;;;;;;0.38;0.38;;;22.00;63.20;;;22.28;48.45;94819.19;5091912;28;20292;-76
2022/08/01 03:43:12;;;;;;;0.50;0.50;;;22.00;63.90;;;22.27;48.11;94815.72;5025094;28;20214;-76
2022/08/01 03:45:46;;;;;;;0.40;0.40;;;22.00;63.10;;;22.29;48.34;94818.91;5073007;28;20738;-76
2022/08/01 03:48:18;;;;;;;0.40;0.40;;;22.00;63.30;;;22.29;48.44;94818.09;5073301;28;20200;-77
2022/08/01 03:50:51;;;;;;;0.60;0.60;;;22.00;63.20;;;22.30;48.13;94819.72;5072951;28;20233;-77
2022/08/01 03:53:29;;;;;;;0.40;0.40;;;22.00;63.40;;;22.28;48.39;94822.66;5088509;28;20228;-77
2022/08/01 03:55:59;;;;;;;0.40;0.40;;;21.90;63.20;;;22.25;48.38;94817.06;5073158;28;20221;-77
2022/08/01 03:58:29;;;;;;;0.40;0.40;;;21.90;63.20;;;22.22;48.44;94818.38;5073030;28;20213;-78
2022/08/01 04:00:57;;;;;;;0.32;0.32;;;21.90;63.40;;;22.20;48.33;94825.84;5048951;28;20215;-77
2022/08/01 04:03:25;;;;;;;0.40;0.40;;;21.90;63.40;;;22.06;48.50;94805.03;5064570;28;20204;-77
2022/08/01 04:05:52;;;;;;;0.40;0.40;;;21.90;63.50;;;22.07;48.64;94827.22;5054749;28;20580;-77
2022/08/01 04:08:19;;;;;;;0.40;0.40;;;21.80;63.50;;;22.05;48.74;94826.66;5054811;28;20202;-77
2022/08/01 04:10:46;;;;;;;0.40;0.40;;;21.70;63.50;;;22.02;49.03;94833.34;5054675;28;20322;-77
2022/08/01 04:13:16;;;;;;;0.40;0.40;;;21.70;63.60;;;21.99;49.08;94835.75;5054643;28;20212;-77
2022/08/01 04:15:43;;;;;;;0.60;0.60;;;21.70;63.60;;;21.97;48.89;94832.53;5071177;28;20587;-77
2022/08/01 04:18:10;;;;;;;0.40;0.40;;;21.70;63.60;;;21.95;49.11;94826.63;5070282;28;20216;-78
2022/08/01 04:20:37;;;;;;;0.47;0.47;;;21.70;63.80;;;21.95;49.42;94831.97;5073680;28;20242;-77
2022/08/01 04:23:04;;;;;;;0.40;0.40;;;21.70;63.80;;;21.95;48.89;94827.47;5091409;28;20199;-77
2022/08/01 04:25:35;;;;;;;0.40;0.40;;;21.70;63.80;;;21.98;49.00;94831.47;5074281;28;20196;-77
2022/08/01 04:28:07;;;;;;;0.40;0.40;;;21.70;64.20;;;22.01;49.31;94831.75;5074724;28;20176;-78
2022/08/01 04:30:37;;;;;;;0.40;0.40;;;21.70;64.10;;;22.06;48.90;94828.28;5056242;28;20317;-77
2022/08/01 04:33:07;;;;;;;0.40;0.40;;;21.70;63.90;;;22.11;48.73;94830.16;5074334;28;20194;-78
2022/08/01 04:35:40;;;;;;;0.35;0.35;;;21.70;63.90;;;22.12;49.33;94813.84;5051747;28;20258;-78
2022/08/01 04:38:31;;;;;;;0.30;0.30;;;21.80;64.00;;;22.23;49.35;94817.31;5059806;28;20199;-78
2022/08/01 04:40:59;;;;;;;0.50;0.50;;;21.90;64.10;;;22.31;49.72;94824.00;5092361;28;20287;-78
2022/08/01 04:43:40;;;;;;;0.40;0.40;;;21.90;64.20;;;22.38;49.31;94819.22;5066130;28;20208;-78
2022/08/01 04:46:13;;;;;;;0.40;0.40;;;22.00;64.40;;;22.40;49.42;94811.72;5071401;28;20320;-78
2022/08/01 04:48:41;;;;;;;0.40;0.40;;;22.00;64.30;;;22.49;48.89;94811.97;5071609;28;20653;-77
2022/08/01 04:51:16;;;;;;;0.40;0.40;;;22.10;64.20;;;22.56;49.32;94815.19;5072502;28;20232;-78
2022/08/01 04:53:45;;;;;;;0.40;0.40;;;22.20;64.40;;;22.61;49.58;94817.06;5087643;28;20223;-78
2022/08/01 04:56:13;;;;;;;0.40;0.40;;;22.20;64.70;;;22.65;49.34;94818.09;5071597;28;20229;-78
2022/08/01 04:58:42;;;;;;;0.32;0.32;;;22.30;64.10;;;22.69;49.22;94813.81;5072519;28;20206;-78
2022/08/01 05:01:11;;;;;;;0.30;0.30;;;22.40;64.50;;;22.74;49.54;94815.66;5072383;28;20636;-77
2022/08/01 05:03:38;;;;;;;0.50;0.50;;;22.40;64.60;;;22.77;49.38;94807.91;5072615;28;20190;-78
2022/08/01 05:06:06;;;;;;;0.30;0.30;;;22.40;64.60;;;22.83;49.38;94819.41;5070346;28;20652;-78
2022/08/01 05:08:33;;;;;;;0.30;0.30;;;22.40;64.20;;;22.86;49.20;94825.00;5090281;28;20210;-79
2022/08/01 05:11:01;;;;;;;0.40;0.40;;;22.50;63.90;;;22.92;49.42;94820.44;5090124;28;20252;-78
2022/08/01 05:13:28;;;;;;;0.40;0.40;;;22.60;64.20;;;22.99;49.12;94820.94;5074395;28;20228;-77
2022/08/01 05:15:55;;;;;;;0.35;0.35;;;22.60;64.40;;;23.08;49.17;94817.72;5071287;28;20226;-78
2022/08/01 05:18:22;;;;;;;0.40;0.40;;;22.70;64.20;;;23.17;48.96;94816.13;5072759;28;20190;-78
2022/08/01 05:20:55;;;;;;;0.40;0.40;;;22.80;64.10;;;23.26;48.90;94819.00;5074057;28;20696;-77
2022/08/01 05:23:22;;;;;;;0.40;0.40;;;22.90;64.10;;;23.40;48.76;94824.56;5070054;28;20652;-78
2022/08/01 05:26:10;;;;;;;0.45;0.45;;;23.00;65.00;;;23.48;48.32;94819.44;5074726;28;20217;-78
2022/08/01 05:28:41;;;;;;;0.30;0.30;;;23.10;63.50;;;23.59;48.05;94822.84;5071500;28;20274;-78
2022/08/01 05:31:08;;;;;;;0.30;0.30;;;23.20;63.30;;;23.67;47.78;94816.13;5072284;28;20252;-78
2022/08/01 05:33:36;;;;;;;0.40;0.40;;;23.30;63.20;;;23.76;48.21;94817.13;5073036;28;20216;-78
2022/08/01 05:36:03;;;;;;;0.40;0.40;;;23.30;63.70;;;23.83;48.08;94822.19;5073161;28;20224;-78
2022/08/01 05:38:30;;;;;;;0.32;0.32;;;23.40;63.40;;;23.89;48.14;94821.06;5074292;28;20211;-78
2022/08/01 05:40:58;;;;;;;0.50;0.50;;;23.50;63.40;;;23.95;47.52;94820.00;5087602;28;20236;-78
2022/08/01 05:43:25;;;;;;;0.30;0.30;;;23.60;63.40;;;24.01;47.96;94826.13;5060560;28;20198;-78
2022/08/01 05:45:55;;;;;;;0.45;0.45;;;23.60;63.50;;;24.04;47.71;94825.53;5077559;28;20261;-78
2022/08/01 05:48:22;;;;;;;0.50;0.50;;;23.70;63.10;;;24.07;47.34;94824.19;5090181;28;20198;-78
2022/08/01 05:50:50;;;;;;;0.40;0.40;;;23.70;62.80;;;24.08;47.38;94823.13;5072849;28;20249;-78
2022/08/01 05:53:24;;;;;;;0.30;0.30;;;23.80;62.50;;;24.08;46.82;94829.28;5059689;28;20714;-77
2022/08/01 05:55:51;;;;;;;0.40;0.40;;;23.80;62.30;;;24.08;46.85;94823.13;5069353;28;20684;-77
2022/08/01 05:58:18;;;;;;;0.40;0.40;;;23.80;62.20;;;24.08;46.95;94833.81;5093869;28;20218;-77
2022/08/01 06:00:45;;;;;;;0.30;0.30;;;23.80;62.20;;;24.09;46.63;94830.88;5087745;28;20805;-77
2022/08/01 06:03:12;;;;;;;0.35;0.35;;;23.80;62.20;;;24.09;46.53;94835.44;5067243;28;20201;-78
2022/08/01 06:05:40;;;;;;;0.30;0.30;;;23.80;62.10;;;24.09;46.69;94836.22;5059606;28;20211;-78
2022/08/01 06:08:07;;;;;;;0.30;0.30;;;23.80;62.10;;;24.11;46.80;94833.28;5076124;28;20668;-77
2022/08/01 06:10:34;;;;;;;0.30;0.30;;;23.90;62.30;;;24.14;46.49;94824.66;5065956;28;20246;-77
2022/08/01 06:13:02;;;;;;;0.30;0.30;;;23.90;62.10;;;24.17;46.53;94832.16;5093628;28;20210;-78
2022/08/01 06:15:31;;;;;;;0.30;0.30;;;23.90;62.10;;;24.21;46.47;94832.41;5077123;28;20274;-77
2022/08/01 06:18:00;;;;;;;0.30;0.30;;;23.90;61.90;;;24.23;46.21;94830.22;5077211;28;20247;-77
2022/08/01 06:20:28;;;;;;;0.50;0.50;;;24.00;62.00;;;24.24;46.78;94823.78;5076837;28;20204;-78
2022/08/01 06:22:55;;;;;;;0.30;0.30;;;24.10;62.10;;;24.33;46.46;94834.69;5073633;28;20420;-78
2022/08/01 06:25:25;;;;;;;0.40;0.40;;;24.10;61.90;;;24.35;46.39;94838.72;5077888;28;20233;-78
2022/08/01 06:27:53;;;;;;;0.40;0.40;;;24.10;61.80;;;24.37;46.45;94833.88;5093369;28;20192;-78
2022/08/01 06:30:20;;;;;;;0.38;0.38;;;24.20;61.80;;;24.39;46.59;94841.63;5042646;28;20228;-80
2022/08/01 06:32:47;;;;;;;0.50;0.50;;;24.20;61.80;;;24.39;46.25;94839.75;5074343;28;20189;-78
2022/08/01 06:35:15;;;;;;;0.40;0.40;;;24.20;61.70;;;24.44;46.36;94849.63;5076292;28;20202;-78
2022/08/01 06:37:44;;;;;;;0.40;0.40;;;24.30;61.90;;;24.51;46.90;94846.63;5093434;28;20201;-79
2022/08/01 06:40:12;;;;;;;0.40;0.40;;;24.30;62.20;;;24.57;46.63;94845.50;5074966;28;20279;-78
2022/08/01 06:42:45;;;;;;;0.40;0.40;;;24.30;62.10;;;24.70;46.42;94841.38;5056486;28;20614;-79
2022/08/01 06:45:14;;;;;;;0.55;0.55;;;24.40;61.90;;;24.84;46.29;94852.25;5089903;28;20194;-78
2022/08/01 06:47:43;;;;;;;0.28;0.28;;;24.50;61.90;;;24.93;46.44;94842.50;5089846;28;20302;-78
2022/08/01 06:50:17;;;;;;;0.40;0.40;;;24.60;61.90;;;25.05;45.98;94847.47;5076531;28;20232;-78
2022/08/01 06:52:44;;;;;;;0.40;0.40;;;24.80;61.90;;;25.11;46.12;94849.00;5082396;28;20194;-78
2022/08/01 06:55:12;;;;;;;0.25;0.25;;;24.90;61.80;;;25.16;45.88;94843.59;5072596;28;20211;-77
2022/08/01 06:57:52;;;;;;;0.40;0.40;;;24.90;61.60;;;25.21;45.59;94843.53;5087640;28;20218;-77
2022/08/01 07:00:22;;;;;;;0.30;0.30;;;25.00;61.40;;;25.27;45.35;94846.94;5064136;28;20207;-77
2022/08/01 07:02:55;;;;;;;0.40;0.40;;;25.00;61.20;;;25.37;45.20;94856.78;5061648;28;20285;-78
2022/08/01 07:05:23;;;;;;;0.30;0.30;;;25.10;61.00;;;25.37;45.26;94849.53;5063796;28;20206;-77
2022/08/01 07:07:50;;;;;;;0.30;0.30;;;25.20;60.90;;;25.45;45.42;94850.81;5074796;28;20210;-79
2022/08/01 07:10:18;;;;;;;0.30;0.30;;;25.30;60.90;;;25.46;45.10;94849.69;5073262;28;20222;-78
2022/08/01 07:12:45;;;;;;;0.30;0.30;;;25.30;60.70;;;25.46;44.99;94860.44;5090934;28;20182;-77
2022/08/01 07:15:12;;;;;;;0.50;0.50;;;25.30;60.70;;;25.40;45.27;94856.22;5074684;28;20285;-78
2022/08/01 07:17:41;;;;;;;0.30;0.30;;;25.30;60.60;;;25.37;45.15;94844.16;5074839;28;20225;-77
2022/08/01 07:20:11;;;;;;;0.30;0.30;;;25.30;60.60;;;25.34;45.24;94854.66;5075853;28;20190;-77
2022/08/01 07:22:43;;;;;;;0.40;0.40;;;25.20;60.90;;;25.33;45.38;94856.53;5092441;28;20670;-77
2022/08/01 07:25:13;;;;;;;0.50;0.50;;;25.20;61.10;;;25.34;45.79;94854.66;5092723;28;20194;-78
2022/08/01 07:27:41;;;;;;;0.40;0.40;;;25.20;61.30;;;25.34;44.71;94858.16;5074130;28;20214;-77
2022/08/01 07:30:08;;;;;;;0.30;0.30;;;25.20;60.60;;;25.35;44.86;94851.69;5055502;28;20306;-78
2022/08/01 07:32:35;;;;;;;0.30;0.30;;;25.20;60.70;;;25.42;45.06;94843.31;5089039;28;20220;-78
2022/08/01 07:35:04;;;;;;;0.30;0.30;;;25.30;60.80;;;25.51;45.36;94846.97;5057821;28;20203;-77
2022/08/01 07:37:31;;;;;;;0.40;0.40;;;25.30;61.00;;;25.64;45.42;94844.66;5075259;28;20226;-79
2022/08/01 07:40:16;;;;;;;0.47;0.47;;;25.40;61.50;;;25.78;45.34;94850.09;5076703;28;20205;-78
2022/08/01 07:42:44;;;;;;;0.32;0.32;;;25.50;61.10;;;25.89;44.69;94849.66;5074804;28;20204;-77
2022/08/01 07:45:13;;;;;;;0.30;0.30;;;25.60;60.70;;;25.97;44.09;94847.41;5057291;28;20202;-79
2022/08/01 07:47:40;;;;;;;0.30;0.30;;;25.70;60.20;;;25.98;43.43;94857.06;5073882;28;20721;-77
2022/08/01 07:50:08;;;;;;;0.40;0.40;;;25.70;59.90;;;26.03;44.08;94848.94;5091298;28;20195;-79
2022/08/01 07:52:36;;;;;;;0.30;0.30;;;25.70;59.90;;;26.07;43.48;94851.88;5088344;28;20317;-79
2022/08/01 07:55:05;;;;;;;0.40;0.40;;;25.80;59.50;;;26.08;43.49;94850.78;5057338;28;20453;-79
2022/08/01 07:57:32;;;;;;;0.30;0.30;;;25.90;59.40;;;26.10;43.38;94846.72;5087317;28;20220;-78
2022/08/01 08:00:01;;;;;;;0.30;0.30;;;25.90;59.50;;;26.17;43.59;94857.88;5089586;28;20222;-79
2022/08/01 08:02:29;;;;;;;0.30;0.30;;;25.90;59.50;;;26.26;43.96;94857.22;5072663;28;20701;-77
2022/08/01 08:04:57;;;;;;;0.30;0.30;;;26.00;60.00;;;26.31;43.81;94847.19;5062929;28;20196;-78
2022/08/01 08:07:24;;;;;;;0.40;0.40;;;26.00;60.90;;;26.41;43.96;94858.88;5054595;28;20215;-78
2022/08/01 08:09:52;;;;;;;0.30;0.30;;;26.10;59.90;;;26.49;42.58;94855.53;5063810;28;20254;-77
2022/08/01 08:12:19;;;;;;;0.30;0.30;;;26.20;58.70;;;26.61;42.85;94852.34;5072971;28;20233;-78
2022/08/01 08:14:58;;;;;;;0.30;0.30;;;26.30;58.90;;;26.77;42.63;94858.28;5074576;28;20195;-81
2022/08/01 08:17:25;;;;;;;0.20;0.20;;;26.40;59.00;;;26.98;42.58;94847.97;5073067;28;20217;-78
2022/08/01 08:19:52;;;;;;;0.30;0.30;;;26.50;58.80;;;27.17;41.93;94864.81;5069787;28;20225;-79
2022/08/01 08:22:20;;;;;;;0.30;0.30;;;26.70;58.30;;;27.38;42.43;94858.22;5071236;28;20759;-78
2022/08/01 08:24:47;;;;;;;0.30;0.30;;;26.90;58.00;;;27.45;41.01;94867.56;5073645;28;20200;-78
2022/08/01 08:27:15;;;;;;;0.30;0.30;;;27.10;57.30;;;27.50;41.11;94863.16;5092641;28;20219;-78
2022/08/01 08:29:42;;;;;;;0.30;0.30;;;27.20;57.10;;;27.52;41.51;94859.03;5073007;28;20204;-77
2022/08/01 08:32:11;;;;;;;0.35;0.35;;;27.30;57.40;;;27.54;41.29;94866.81;5065227;28;20232;-78
2022/08/01 08:34:38;;;;;;;0.28;0.28;;;27.30;56.90;;;27.61;41.25;94864.53;5063929;28;20241;-79
2022/08/01 08:37:06;;;;;;;0.30;0.30;;;27.30;57.00;;;27.72;41.69;94865.09;5053636;28;20257;-78
2022/08/01 08:39:35;;;;;;;0.20;0.20;;;27.40;57.30;;;27.82;41.80;94869.47;5068202;28;20309;-78
2022/08/01 08:42:10;;;;;;;0.30;0.30;;;27.50;56.80;;;27.89;40.84;94867.16;5090117;28;20213;-79
2022/08/01 08:44:39;;;;;;;0.30;0.30;;;27.60;56.30;;;27.93;40.50;94860.88;5072620;28;20766;-79
2022/08/01 08:47:13;;;;;;;0.40;0.40;;;27.60;56.30;;;28.00;41.08;94871.22;5073703;28;20229;-79
2022/08/01 08:49:47;;;;;;;0.30;0.30;;;27.70;56.70;;;28.04;40.79;94876.81;5070761;28;20647;-78
2022/08/01 08:52:17;;;;;;;0.30;0.30;;;27.80;56.00;;;28.05;40.40;94878.44;5039839;28;20687;-80
2022/08/01 08:54:46;;;;;;;0.32;0.32;;;27.80;56.10;;;28.08;40.41;94878.63;5069933;28;20632;-79
2022/08/01 08:57:15;;;;;;;0.30;0.30;;;27.90;56.00;;;28.15;40.98;94888.19;5054070;28;20217;-79
2022/08/01 08:59:45;;;;;;;0.30;0.30;;;27.90;55.80;;;28.16;39.99;94884.41;5047141;28;20616;-79
2022/08/01 09:02:12;;;;;;;0.32;0.32;;;27.90;55.10;;;28.16;39.56;94887.91;5051165;28;20238;-79
2022/08/01 09:04:41;;;;;;;0.30;0.30;;;27.90;55.30;;;28.16;39.22;94882.50;5070334;28;20208;-79
2022/08/01 09:07:08;;;;;;;0.30;0.30;;;27.90;54.70;;;28.18;39.95;94885.69;5073566;28;20312;-79
2022/08/01 09:09:38;;;;;;;0.32;0.32;;;27.90;55.30;;;28.18;39.37;94895.69;5073300;28;20187;-78
2022/08/01 09:12:08;;;;;;;0.30;0.30;;;28.00;54.30;;;28.21;39.89;94892.38;5075878;28;20768;-78
2022/08/01 09:14:45;;;;;;;0.30;0.30;;;28.00;55.10;;;28.24;40.05;94887.16;5060922;28;20645;-77
2022/08/01 09:17:13;;;;;;;0.40;0.40;;;28.00;55.20;;;28.34;40.31;94880.72;5076817;28;20218;-79
2022/08/01 09:19:51;;;;;;;0.30;0.30;;;28.00;55.50;;;28.43;40.18;94883.50;5092461;28;20202;-78
2022/08/01 09:22:23;;;;;;;0.30;0.30;;;28.10;55.40;;;28.47;40.46;94884.47;5094361;28;20218;-79
2022/08/01 09:25:00;;;;;;;0.30;0.30;;;28.10;55.70;;;28.53;39.67;94877.06;5061483;28;20205;-78
2022/08/01 09:27:28;;;;;;;0.30;0.30;;;28.20;55.30;;;28.61;40.42;94881.72;5094949;28;20295;-79
2022/08/01 09:30:18;;;;;;;0.32;0.32;;;28.30;55.50;;;28.68;39.76;94901.00;5059861;28;20191;-78
2022/08/01 09:33:00;;;;;;;0.32;0.32;;;28.30;55.50;;;28.75;38.99;94879.75;5088852;28;20234;-79
2022/08/01 09:35:36;;;;;;;0.30;0.30;;;28.40;54.70;;;28.80;39.21;94889.66;5077679;28;20207;-79
2022/08/01 09:38:22;;;;;;;0.30;0.30;;;28.50;54.10;;;28.84;38.42;94887.91;5062556;28;20206;-80
2022/08/01 09:41:00;;;;;;;0.20;0.20;;;28.60;53.20;;;28.89;37.90;94879.69;5071769;28;20214;-78
2022/08/01 09:43:31;;;;;;;0.30;0.30;;;28.60;52.60;;;28.95;37.24;94874.94;5057483;28;20251;-79
2022/08/01 09:46:04;;;;;;;0.32;0.32;;;28.70;52.50;;;29.10;37.95;94870.25;5064973;28;20246;-79
2022/08/01 09:48:32;;;;;;;0.30;0.30;;;28.70;53.10;;;29.21;37.86;94855.34;5078536;28;20213;-78
2022/08/01 09:51:00;;;;;;;0.30;0.30;;;28.80;53.10;;;29.33;36.22;94871.00;5090757;28;20561;-78
2022/08/01 09:53:48;;;;;;;0.30;0.30;;;28.90;52.60;;;29.49;37.10;94869.47;5077368;28;20202;-78
2022/08/01 09:56:21;;;;;;;0.20;0.20;;;29.10;52.00;;;29.62;36.56;94864.25;5078029;28;20216;-80
2022/08/01 09:58:58;;;;;;;0.30;0.30;;;29.20;51.30;;;29.70;35.38;94871.59;5075665;28;20716;-78
2022/08/01 10:01:49;;;;;;;0.30;0.30;;;29.30;51.00;;;29.65;35.98;94864.44;5056811;28;20227;-79
2022/08/01 10:04:21;;;;;;;0.47;0.47;;;29.40;51.40;;;29.63;35.49;94858.53;5067168;28;20303;-79
2022/08/01 10:06:52;;;;;;;0.30;0.30;;;29.40;50.80;;;29.65;36.51;94861.72;5058704;28;20220;-79
2022/08/01 10:09:31;;;;;;;0.30;0.30;;;29.40;51.50;;;29.68;36.90;94863.78;5075455;28;20757;-77
2022/08/01 10:12:07;;;;;;;0.30;0.30;;;29.40;51.30;;;29.67;35.65;94856.00;5074405;28;20257;-79
2022/08/01 10:14:44;;;;;;;0.30;0.30;;;29.50;50.80;;;29.72;36.10;94858.53;5090974;28;20200;-79
2022/08/01 10:17:19;;;;;;;0.22;0.22;;;29.50;51.00;;;29.75;35.85;94849.81;5076343;28;20302;-80
2022/08/01 10:19:50;;;;;;;0.30;0.30;;;29.50;50.30;;;29.83;36.26;94859.03;5076734;28;20203;-80
2022/08/01 10:22:20;;;;;;;0.30;0.30;;;29.60;50.90;;;29.94;36.51;94868.47;5092581;28;20307;-79
2022/08/01 10:24:49;;;;;;;0.30;0.30;;;29.60;51.00;;;30.01;36.62;94863.38;5071562;28;20707;-78
2022/08/01 10:27:18;;;;;;;0.30;0.30;;;29.70;51.00;;;30.07;35.44;94865.94;5067193;28;20248;-78
2022/08/01 10:30:04;;;;;;;0.28;0.28;;;29.80;50.00;;;30.03;35.23;94863.09;5049312;28;20329;-79
2022/08/01 10:32:51;;;;;;;0.30;0.30;;;29.80;49.70;;;30.04;36.05;94872.75;5059477;28;20622;-78
2022/08/01 10:35:21;;;;;;;0.30;0.30;;;29.90;49.80;;;30.11;36.26;94861.47;5092592;28;20578;-78
2022/08/01 10:38:10;;;;;;;0.40;0.40;;;29.90;50.40;;;30.20;35.65;94865.00;5091741;28;20223;-77